createdAt,value
2023-01-19T00:00:43.691Z,18
2023-01-19T00:01:43.692Z,15
2023-01-19T00:03:43.677Z,19
2023-01-19T00:04:43.691Z,16
2023-01-19T00:05:43.692Z,16
2023-01-19T00:06:43.677Z,16
2023-01-19T00:07:43.677Z,15
2023-01-19T00:08:43.691Z,15
2023-01-19T00:09:43.732Z,14
2023-01-19T00:10:43.677Z,15
2023-01-19T00:11:43.691Z,17
2023-01-19T00:12:43.691Z,18
2023-01-19T00:13:43.691Z,18
2023-01-19T00:14:43.677Z,18
2023-01-19T00:15:43.691Z,19
2023-01-19T00:17:43.691Z,16
2023-01-19T00:18:43.677Z,16
2023-01-19T00:19:43.692Z,16
2023-01-19T00:20:43.692Z,15
2023-01-19T00:21:43.678Z,16
2023-01-19T00:22:43.677Z,15
2023-01-19T00:23:43.692Z,14
2023-01-19T00:24:43.692Z,17
2023-01-19T00:25:43.678Z,15
2023-01-19T00:26:43.733Z,15
2023-01-19T00:27:43.692Z,15
2023-01-19T00:28:43.692Z,14
2023-01-19T00:29:43.678Z,13
2023-01-19T00:30:43.692Z,15
2023-01-19T00:31:43.692Z,13
2023-01-19T00:32:43.692Z,13
2023-01-19T00:33:43.678Z,15
2023-01-19T00:34:43.692Z,14
2023-01-19T00:35:43.693Z,13
2023-01-19T00:36:43.692Z,13
2023-01-19T00:37:43.678Z,12
2023-01-19T00:38:43.692Z,10
2023-01-19T00:39:43.692Z,12
2023-01-19T00:40:43.678Z,12
2023-01-19T00:41:43.678Z,12
2023-01-19T00:42:43.692Z,12
2023-01-19T00:43:43.717Z,13
2023-01-19T00:44:43.678Z,10
2023-01-19T00:45:43.692Z,11
2023-01-19T00:46:43.692Z,11
2023-01-19T00:47:43.692Z,12
2023-01-19T00:48:43.678Z,10
2023-01-19T00:49:43.692Z,10
2023-01-19T00:50:43.693Z,9
2023-01-19T00:51:43.692Z,10
2023-01-19T00:52:43.678Z,10
2023-01-19T00:53:43.692Z,11
2023-01-19T00:54:43.693Z,12
2023-01-19T00:55:43.692Z,11
2023-01-19T00:56:43.678Z,13
2023-01-19T00:57:43.692Z,11
2023-01-19T00:58:43.693Z,12
2023-01-19T00:59:43.678Z,10
2023-01-19T01:00:43.678Z,9
2023-01-19T01:01:43.692Z,10
2023-01-19T01:02:43.692Z,11
2023-01-19T01:03:43.678Z,11
2023-01-19T01:04:43.692Z,8
2023-01-19T01:05:43.692Z,9
2023-01-19T01:06:43.692Z,10
2023-01-19T01:07:43.678Z,10
2023-01-19T01:08:43.692Z,10
2023-01-19T01:09:43.693Z,9
2023-01-19T01:10:43.692Z,11
2023-01-19T01:11:43.678Z,11
2023-01-19T01:12:43.692Z,11
2023-01-19T01:13:43.693Z,13
2023-01-19T01:14:43.678Z,10
2023-01-19T01:15:43.678Z,12
2023-01-19T01:16:43.692Z,11
2023-01-19T01:17:43.693Z,10
2023-01-19T01:18:43.678Z,12
2023-01-19T01:19:43.692Z,13
2023-01-19T01:20:43.692Z,11
2023-01-19T01:21:43.692Z,12
2023-01-19T01:22:43.678Z,14
2023-01-19T01:23:43.692Z,16
2023-01-19T01:24:43.758Z,12
2023-01-19T01:25:43.692Z,12
2023-01-19T01:26:43.678Z,14
2023-01-19T01:27:43.692Z,13
2023-01-19T01:28:43.693Z,12
2023-01-19T01:29:43.692Z,13
2023-01-19T01:30:43.678Z,15
2023-01-19T01:31:43.692Z,17
2023-01-19T01:32:43.693Z,15
2023-01-19T01:33:43.678Z,15
2023-01-19T01:34:43.678Z,14
2023-01-19T01:35:43.692Z,14
2023-01-19T01:36:43.733Z,16
2023-01-19T01:37:43.678Z,14
2023-01-19T01:38:43.692Z,13
2023-01-19T01:39:43.692Z,12
2023-01-19T01:40:43.692Z,13
2023-01-19T01:41:43.678Z,12
2023-01-19T01:42:43.692Z,11
2023-01-19T01:43:43.693Z,13
2023-01-19T01:44:43.692Z,12
2023-01-19T01:45:43.678Z,12
2023-01-19T01:46:43.692Z,11
2023-01-19T01:47:43.693Z,12
2023-01-19T01:48:43.678Z,12
2023-01-19T01:49:43.678Z,9
2023-01-19T01:50:43.692Z,12
2023-01-19T01:51:43.693Z,10
2023-01-19T01:52:43.678Z,9
2023-01-19T01:53:43.743Z,11
2023-01-19T01:54:43.692Z,11
2023-01-19T01:55:43.692Z,12
2023-01-19T01:56:43.678Z,11
2023-01-19T01:57:43.692Z,12
2023-01-19T01:58:43.692Z,12
2023-01-19T01:59:43.692Z,12
2023-01-19T02:00:43.678Z,12
2023-01-19T02:01:43.692Z,11
2023-01-19T02:02:43.693Z,10
2023-01-19T02:03:43.692Z,9
2023-01-19T02:04:43.678Z,7
2023-01-19T02:05:43.692Z,7
2023-01-19T02:06:43.693Z,9
2023-01-19T02:07:43.678Z,10
2023-01-19T02:08:43.678Z,12
2023-01-19T02:09:43.692Z,8
2023-01-19T02:10:43.718Z,9
2023-01-19T02:11:43.678Z,10
2023-01-19T02:12:43.692Z,7
2023-01-19T02:13:43.692Z,10
2023-01-19T02:14:43.692Z,10
2023-01-19T02:15:43.678Z,10
2023-01-19T02:16:43.693Z,9
2023-01-19T02:17:43.693Z,10
2023-01-19T02:18:43.692Z,10
2023-01-19T02:19:43.678Z,11
2023-01-19T02:20:43.692Z,12
2023-01-19T02:21:43.693Z,12
2023-01-19T02:22:43.678Z,12
2023-01-19T02:23:43.678Z,11
2023-01-19T02:24:43.692Z,10
2023-01-19T02:25:43.693Z,11
2023-01-19T02:26:43.678Z,12
2023-01-19T02:27:43.678Z,12
2023-01-19T02:28:43.692Z,12
2023-01-19T02:29:43.692Z,11
2023-01-19T02:30:43.678Z,12
2023-01-19T02:31:43.693Z,14
2023-01-19T02:32:43.692Z,13
2023-01-19T02:33:43.692Z,13
2023-01-19T02:34:43.678Z,12
2023-01-19T02:35:43.693Z,14
2023-01-19T02:36:43.693Z,12
2023-01-19T02:37:43.692Z,10
2023-01-19T02:38:43.679Z,10
2023-01-19T02:39:43.693Z,14
2023-01-19T02:40:43.693Z,10
2023-01-19T02:41:43.679Z,9
2023-01-19T02:42:43.679Z,12
2023-01-19T02:43:43.693Z,11
2023-01-19T02:44:43.693Z,12
2023-01-19T02:45:43.679Z,12
2023-01-19T02:46:43.757Z,15
2023-01-19T02:47:43.693Z,13
2023-01-19T02:48:43.692Z,13
2023-01-19T02:49:43.679Z,13
2023-01-19T02:50:43.693Z,13
2023-01-19T02:51:43.693Z,13
2023-01-19T02:52:43.693Z,13
2023-01-19T02:53:43.679Z,13
2023-01-19T02:54:43.693Z,13
2023-01-19T02:55:43.693Z,14
2023-01-19T02:56:43.693Z,12
2023-01-19T02:57:43.679Z,14
2023-01-19T02:58:43.694Z,13
2023-01-19T02:59:43.693Z,12
2023-01-19T03:00:43.679Z,13
2023-01-19T03:01:43.679Z,19
2023-01-19T03:02:43.693Z,14
2023-01-19T03:03:43.693Z,18
2023-01-19T03:04:43.679Z,13
2023-01-19T03:05:43.693Z,13
2023-01-19T03:06:43.693Z,12
2023-01-19T03:07:43.693Z,12
2023-01-19T03:08:43.679Z,13
2023-01-19T03:09:43.693Z,12
2023-01-19T03:10:43.693Z,11
2023-01-19T03:11:43.693Z,10
2023-01-19T03:12:43.679Z,11
2023-01-19T03:13:43.693Z,11
2023-01-19T03:14:43.693Z,11
2023-01-19T03:15:43.702Z,11
2023-01-19T03:16:43.679Z,13
2023-01-19T03:17:43.693Z,13
2023-01-19T03:18:43.693Z,10
2023-01-19T03:19:43.679Z,8
2023-01-19T03:20:43.679Z,8
2023-01-19T03:21:43.693Z,11
2023-01-19T03:22:43.693Z,13
2023-01-19T03:23:43.679Z,13
2023-01-19T03:24:43.693Z,13
2023-01-19T03:25:43.693Z,10
2023-01-19T03:26:43.693Z,8
2023-01-19T03:27:43.679Z,7
2023-01-19T03:28:43.693Z,8
2023-01-19T03:29:43.693Z,6
2023-01-19T03:30:43.693Z,8
2023-01-19T03:31:43.679Z,6
2023-01-19T03:32:43.693Z,6
2023-01-19T03:33:43.693Z,6
2023-01-19T03:34:43.679Z,5
2023-01-19T03:35:43.679Z,5
2023-01-19T03:36:43.693Z,7
2023-01-19T03:37:43.693Z,8
2023-01-19T03:38:43.679Z,6
2023-01-19T03:39:43.693Z,6
2023-01-19T03:40:43.693Z,6
2023-01-19T03:41:43.693Z,6
2023-01-19T03:42:43.679Z,6
2023-01-19T03:43:43.693Z,5
2023-01-19T03:44:43.738Z,6
2023-01-19T03:45:43.693Z,5
2023-01-19T03:46:43.679Z,6
2023-01-19T03:47:43.693Z,7
2023-01-19T03:48:43.693Z,6
2023-01-19T03:49:43.693Z,8
2023-01-19T03:50:43.679Z,6
2023-01-19T03:51:43.693Z,8
2023-01-19T03:52:43.693Z,9
2023-01-19T03:53:43.679Z,7
2023-01-19T03:54:43.679Z,6
2023-01-19T03:55:43.693Z,6
2023-01-19T03:56:43.718Z,6
2023-01-19T03:57:43.679Z,6
2023-01-19T03:58:43.693Z,7
2023-01-19T03:59:43.693Z,7
2023-01-19T04:00:43.693Z,11
2023-01-19T04:01:43.679Z,13
2023-01-19T04:02:43.693Z,11
2023-01-19T04:03:43.693Z,9
2023-01-19T04:04:43.693Z,8
2023-01-19T04:05:43.679Z,10
2023-01-19T04:06:43.693Z,9
2023-01-19T04:07:43.693Z,10
2023-01-19T04:08:43.679Z,10
2023-01-19T04:09:43.679Z,9
2023-01-19T04:10:43.693Z,12
2023-01-19T04:11:43.693Z,13
2023-01-19T04:12:43.679Z,11
2023-01-19T04:13:43.679Z,12
2023-01-19T04:14:43.693Z,14
2023-01-19T04:15:43.693Z,16
2023-01-19T04:16:43.679Z,16
2023-01-19T04:17:43.693Z,18
2023-01-19T04:18:43.693Z,15
2023-01-19T04:19:43.693Z,14
2023-01-19T04:20:43.679Z,12
2023-01-19T04:21:43.693Z,12
2023-01-19T04:22:43.694Z,14
2023-01-19T04:23:43.693Z,13
2023-01-19T04:24:43.679Z,15
2023-01-19T04:25:43.693Z,12
2023-01-19T04:26:43.694Z,11
2023-01-19T04:27:43.679Z,12
2023-01-19T04:28:43.679Z,15
2023-01-19T04:29:43.693Z,13
2023-01-19T04:30:43.694Z,17
2023-01-19T04:31:43.679Z,11
2023-01-19T04:32:43.693Z,13
2023-01-19T04:33:43.693Z,12
2023-01-19T04:34:43.693Z,11
2023-01-19T04:35:43.679Z,11
2023-01-19T04:36:43.693Z,12
2023-01-19T04:37:43.759Z,14
2023-01-19T04:38:43.693Z,10
2023-01-19T04:39:43.679Z,12
2023-01-19T04:40:43.693Z,12
2023-01-19T04:41:43.694Z,13
2023-01-19T04:42:43.693Z,11
2023-01-19T04:43:43.679Z,13
2023-01-19T04:44:43.693Z,13
2023-01-19T04:45:43.694Z,15
2023-01-19T04:46:43.679Z,15
2023-01-19T04:47:43.679Z,13
2023-01-19T04:48:43.693Z,17
2023-01-19T04:49:43.693Z,13
2023-01-19T04:50:43.679Z,12
2023-01-19T04:51:43.693Z,14
2023-01-19T04:52:43.693Z,12
2023-01-19T04:53:43.693Z,14
2023-01-19T04:54:43.679Z,12
2023-01-19T04:55:43.693Z,11
2023-01-19T04:56:43.693Z,12
2023-01-19T04:57:43.693Z,12
2023-01-19T04:58:43.679Z,10
2023-01-19T04:59:43.693Z,13
2023-01-19T05:00:43.693Z,14
2023-01-19T05:01:43.679Z,12
2023-01-19T05:02:43.679Z,14
2023-01-19T05:03:43.693Z,16
2023-01-19T05:04:43.694Z,15
2023-01-19T05:05:43.679Z,14
2023-01-19T05:06:43.743Z,14
2023-01-19T05:07:43.693Z,20
2023-01-19T05:08:43.693Z,18
2023-01-19T05:09:43.679Z,18
2023-01-19T05:10:43.693Z,18
2023-01-19T05:11:43.693Z,18
2023-01-19T05:12:43.693Z,14
2023-01-19T05:13:43.679Z,16
2023-01-19T05:14:43.693Z,18
2023-01-19T05:15:43.694Z,20
2023-01-19T05:16:43.693Z,18
2023-01-19T05:17:43.679Z,16
2023-01-19T05:18:43.693Z,14
2023-01-19T05:19:43.693Z,15
2023-01-19T05:20:43.679Z,18
2023-01-19T05:21:43.679Z,15
2023-01-19T05:22:43.693Z,16
2023-01-19T05:23:43.718Z,20
2023-01-19T05:24:43.679Z,19
2023-01-19T05:25:43.693Z,19
2023-01-19T05:26:43.693Z,17
2023-01-19T05:27:43.693Z,19
2023-01-19T05:28:43.679Z,17
2023-01-19T05:29:43.693Z,17
2023-01-19T05:30:43.693Z,18
2023-01-19T05:31:43.693Z,15
2023-01-19T05:32:43.679Z,13
2023-01-19T05:33:43.693Z,14
2023-01-19T05:34:43.693Z,11
2023-01-19T05:35:43.679Z,18
2023-01-19T05:36:43.679Z,15
2023-01-19T05:37:43.693Z,15
2023-01-19T05:38:43.693Z,19
2023-01-19T05:39:43.679Z,16
2023-01-19T05:40:43.679Z,16
2023-01-19T05:41:43.693Z,17
2023-01-19T05:42:43.693Z,15
2023-01-19T05:43:43.679Z,18
2023-01-19T05:44:43.693Z,13
2023-01-19T05:45:43.693Z,17
2023-01-19T05:46:43.693Z,16
2023-01-19T05:47:43.679Z,16
2023-01-19T05:48:43.693Z,16
2023-01-19T05:49:43.694Z,20
2023-01-19T05:50:43.693Z,20
2023-01-19T05:51:43.679Z,19
2023-01-19T05:52:43.757Z,17
2023-01-19T05:53:43.694Z,22
2023-01-19T05:54:43.679Z,19
2023-01-19T05:55:43.679Z,19
2023-01-19T05:56:43.693Z,19
2023-01-19T05:57:43.694Z,23
2023-01-19T05:58:43.679Z,26
2023-01-19T05:59:43.679Z,23
2023-01-19T06:00:43.693Z,26
2023-01-19T06:01:43.693Z,23
2023-01-19T06:02:43.679Z,19
2023-01-19T06:03:43.693Z,20
2023-01-19T06:04:43.693Z,18
2023-01-19T06:05:43.693Z,20
2023-01-19T06:06:43.679Z,24
2023-01-19T06:07:43.693Z,28
2023-01-19T06:08:43.694Z,27
2023-01-19T06:09:43.693Z,33
2023-01-19T06:10:43.679Z,37
2023-01-19T06:11:43.693Z,38
2023-01-19T06:12:43.694Z,31
2023-01-19T06:13:43.679Z,35
2023-01-19T06:14:43.679Z,29
2023-01-19T06:15:43.693Z,31
2023-01-19T06:16:43.694Z,25
2023-01-19T06:17:43.679Z,24
2023-01-19T06:18:43.693Z,23
2023-01-19T06:19:43.693Z,27
2023-01-19T06:20:43.693Z,36
2023-01-19T06:21:43.679Z,30
2023-01-19T06:22:43.693Z,23
2023-01-19T06:23:43.759Z,26
2023-01-19T06:24:43.693Z,36
2023-01-19T06:25:43.679Z,25
2023-01-19T06:26:43.693Z,26
2023-01-19T06:27:43.694Z,35
2023-01-19T06:28:43.693Z,25
2023-01-19T06:29:43.679Z,21
2023-01-19T06:30:43.693Z,28
2023-01-19T06:31:43.694Z,28
2023-01-19T06:32:43.679Z,34
2023-01-19T06:33:43.679Z,35
2023-01-19T06:34:43.693Z,39
2023-01-19T06:35:43.734Z,44
2023-01-19T06:36:43.679Z,35
2023-01-19T06:37:43.693Z,32
2023-01-19T06:38:43.693Z,30
2023-01-19T06:39:43.693Z,31
2023-01-19T06:40:43.679Z,24
2023-01-19T06:41:43.694Z,24
2023-01-19T06:42:43.694Z,24
2023-01-19T06:43:43.693Z,24
2023-01-19T06:44:43.679Z,32
2023-01-19T06:45:43.694Z,30
2023-01-19T06:46:43.694Z,26
2023-01-19T06:47:43.679Z,28
2023-01-19T06:48:43.679Z,37
2023-01-19T06:49:43.694Z,39
2023-01-19T06:50:43.694Z,34
2023-01-19T06:51:43.679Z,29
2023-01-19T06:52:43.680Z,25
2023-01-19T06:53:43.694Z,25
2023-01-19T06:54:43.694Z,24
2023-01-19T06:55:43.679Z,29
2023-01-19T06:56:43.694Z,30
2023-01-19T06:57:43.693Z,26
2023-01-19T06:58:43.693Z,29
2023-01-19T06:59:43.680Z,28
2023-01-19T07:00:43.694Z,40
2023-01-19T07:01:43.694Z,39
2023-01-19T07:02:43.693Z,34
2023-01-19T07:03:43.680Z,31
2023-01-19T07:04:43.735Z,28
2023-01-19T07:05:43.694Z,26
2023-01-19T07:06:43.680Z,26
2023-01-19T07:07:43.680Z,24
2023-01-19T07:08:43.694Z,27
2023-01-19T07:09:43.694Z,27
2023-01-19T07:10:43.680Z,23
2023-01-19T07:11:43.694Z,34
2023-01-19T07:12:43.694Z,31
2023-01-19T07:13:43.694Z,34
2023-01-19T07:14:43.680Z,27
2023-01-19T07:15:43.694Z,36
2023-01-19T07:16:43.694Z,37
2023-01-19T07:17:43.694Z,44
2023-01-19T07:18:43.680Z,36
2023-01-19T07:19:43.694Z,30
2023-01-19T07:20:43.694Z,34
2023-01-19T07:21:43.680Z,26
2023-01-19T07:22:43.680Z,31
2023-01-19T07:23:43.694Z,34
2023-01-19T07:24:43.695Z,30
2023-01-19T07:25:43.680Z,32
2023-01-19T07:26:43.680Z,30
2023-01-19T07:27:43.694Z,36
2023-01-19T07:28:43.694Z,30
2023-01-19T07:29:43.680Z,29
2023-01-19T07:30:43.694Z,31
2023-01-19T07:31:43.694Z,32
2023-01-19T07:32:43.694Z,28
2023-01-19T07:33:43.680Z,37
2023-01-19T07:34:43.694Z,27
2023-01-19T07:35:43.695Z,26
2023-01-19T07:36:43.694Z,24
2023-01-19T07:37:43.680Z,28
2023-01-19T07:38:43.694Z,30
2023-01-19T07:39:43.695Z,27
2023-01-19T07:40:43.680Z,33
2023-01-19T07:41:43.680Z,31
2023-01-19T07:42:43.694Z,37
2023-01-19T07:43:43.695Z,41
2023-01-19T07:44:43.680Z,35
2023-01-19T07:45:43.736Z,35
2023-01-19T07:46:43.694Z,30
2023-01-19T07:47:43.694Z,40
2023-01-19T07:48:43.680Z,31
2023-01-19T07:49:43.694Z,38
2023-01-19T07:50:43.694Z,34
2023-01-19T07:51:43.694Z,40
2023-01-19T07:52:43.680Z,42
2023-01-19T07:53:43.694Z,34
2023-01-19T07:54:43.695Z,42
2023-01-19T07:55:43.694Z,39
2023-01-19T07:56:43.680Z,36
2023-01-19T07:57:43.696Z,45
2023-01-19T07:58:43.695Z,36
2023-01-19T07:59:43.680Z,37
2023-01-19T08:00:43.680Z,40
2023-01-19T08:01:43.694Z,50
2023-01-19T08:02:43.695Z,39
2023-01-19T08:03:43.680Z,39
2023-01-19T08:04:43.694Z,48
2023-01-19T08:05:43.694Z,53
2023-01-19T08:06:43.694Z,56
2023-01-19T08:07:43.680Z,50
2023-01-19T08:08:43.694Z,50
2023-01-19T08:09:43.695Z,48
2023-01-19T08:10:43.694Z,42
2023-01-19T08:11:43.680Z,41
2023-01-19T08:12:43.694Z,39
2023-01-19T08:13:43.695Z,38
2023-01-19T08:14:43.680Z,42
2023-01-19T08:15:43.680Z,43
2023-01-19T08:16:43.694Z,44
2023-01-19T08:17:43.695Z,46
2023-01-19T08:18:43.680Z,41
2023-01-19T08:19:43.681Z,35
2023-01-19T08:20:43.695Z,40
2023-01-19T08:21:43.695Z,47
2023-01-19T08:22:43.681Z,43
2023-01-19T08:23:43.695Z,43
2023-01-19T08:24:43.695Z,52
2023-01-19T08:25:43.695Z,45
2023-01-19T08:26:43.681Z,41
2023-01-19T08:27:43.695Z,40
2023-01-19T08:28:43.695Z,38
2023-01-19T08:29:43.695Z,35
2023-01-19T08:30:43.681Z,48
2023-01-19T08:31:43.695Z,48
2023-01-19T08:32:43.696Z,42
2023-01-19T08:33:43.681Z,38
2023-01-19T08:34:43.681Z,40
2023-01-19T08:35:43.695Z,39
2023-01-19T08:36:43.696Z,34
2023-01-19T08:37:43.681Z,45
2023-01-19T08:38:43.695Z,37
2023-01-19T08:39:43.695Z,40
2023-01-19T08:40:43.695Z,44
2023-01-19T08:41:43.681Z,43
2023-01-19T08:42:43.695Z,42
2023-01-19T08:43:43.701Z,46
2023-01-19T08:44:43.695Z,45
2023-01-19T08:45:43.681Z,47
2023-01-19T08:46:43.696Z,59
2023-01-19T08:47:43.696Z,49
2023-01-19T08:48:43.695Z,43
2023-01-19T08:49:43.681Z,42
2023-01-19T08:50:43.695Z,54
2023-01-19T08:51:43.696Z,47
2023-01-19T08:52:43.681Z,58
2023-01-19T08:53:43.681Z,56
2023-01-19T08:54:43.695Z,51
2023-01-19T08:55:43.736Z,52
2023-01-19T08:56:43.681Z,52
2023-01-19T08:57:43.696Z,48
2023-01-19T08:58:43.695Z,39
2023-01-19T08:59:43.695Z,39
2023-01-19T09:00:43.681Z,49
2023-01-19T09:01:43.696Z,47
2023-01-19T09:02:43.696Z,42
2023-01-19T09:03:43.695Z,41
2023-01-19T09:04:43.682Z,44
2023-01-19T09:05:43.696Z,46
2023-01-19T09:06:43.696Z,42
2023-01-19T09:07:43.682Z,35
2023-01-19T09:08:43.682Z,49
2023-01-19T09:09:43.696Z,42
2023-01-19T09:10:43.697Z,40
2023-01-19T09:11:43.682Z,32
2023-01-19T09:13:43.696Z,48
2023-01-19T09:14:43.696Z,50
2023-01-19T09:15:43.682Z,43
2023-01-19T09:16:43.696Z,44
2023-01-19T09:17:43.696Z,48
2023-01-19T09:18:43.696Z,38
2023-01-19T09:19:43.682Z,38
2023-01-19T09:20:43.696Z,36
2023-01-19T09:21:43.697Z,41
2023-01-19T09:22:43.696Z,42
2023-01-19T09:23:43.682Z,43
2023-01-19T09:24:43.696Z,49
2023-01-19T09:25:43.697Z,40
2023-01-19T09:26:43.682Z,38
2023-01-19T09:27:43.682Z,39
2023-01-19T09:28:43.697Z,49
2023-01-19T09:29:43.697Z,53
2023-01-19T09:30:43.682Z,50
2023-01-19T09:31:43.737Z,51
2023-01-19T09:32:43.696Z,46
2023-01-19T09:33:43.696Z,45
2023-01-19T09:34:43.682Z,51
2023-01-19T09:35:43.696Z,49
2023-01-19T09:36:43.696Z,40
2023-01-19T09:37:43.696Z,42
2023-01-19T09:38:43.682Z,45
2023-01-19T09:39:43.696Z,50
2023-01-19T09:40:43.697Z,47
2023-01-19T09:41:43.696Z,38
2023-01-19T09:42:43.682Z,51
2023-01-19T09:43:43.696Z,50
2023-01-19T09:44:43.697Z,54
2023-01-19T09:45:43.682Z,63
2023-01-19T09:46:43.683Z,56
2023-01-19T09:47:43.697Z,59
2023-01-19T09:48:43.698Z,50
2023-01-19T09:49:43.683Z,47
2023-01-19T09:50:43.697Z,47
2023-01-19T09:51:43.697Z,57
2023-01-19T09:52:43.697Z,53
2023-01-19T09:53:43.683Z,61
2023-01-19T09:54:43.697Z,56
2023-01-19T09:55:43.698Z,64
2023-01-19T09:56:43.697Z,61
2023-01-19T09:57:43.683Z,58
2023-01-19T09:58:43.697Z,49
2023-01-19T09:59:43.698Z,48
2023-01-19T10:00:43.683Z,59
2023-01-19T10:01:43.683Z,61
2023-01-19T10:02:43.697Z,54
2023-01-19T10:03:43.698Z,43
2023-01-19T10:04:43.683Z,47
2023-01-19T10:05:43.748Z,48
2023-01-19T10:06:43.697Z,46
2023-01-19T10:07:43.697Z,53
2023-01-19T10:08:43.683Z,68
2023-01-19T10:09:43.698Z,46
2023-01-19T10:10:43.698Z,50
2023-01-19T10:11:43.698Z,56
2023-01-19T10:12:43.684Z,63
2023-01-19T10:13:43.698Z,53
2023-01-19T10:14:43.699Z,53
2023-01-19T10:15:43.698Z,50
2023-01-19T10:16:43.684Z,46
2023-01-19T10:17:43.698Z,48
2023-01-19T10:18:43.699Z,47
2023-01-19T10:19:43.684Z,44
2023-01-19T10:20:43.684Z,44
2023-01-19T10:21:43.698Z,60
2023-01-19T10:22:43.763Z,47
2023-01-19T10:23:43.684Z,55
2023-01-19T10:24:43.699Z,48
2023-01-19T10:25:43.698Z,57
2023-01-19T10:26:43.698Z,51
2023-01-19T10:27:43.684Z,49
2023-01-19T10:28:43.699Z,65
2023-01-19T10:29:43.699Z,67
2023-01-19T10:30:43.699Z,62
2023-01-19T10:31:43.685Z,57
2023-01-19T10:32:43.699Z,49
2023-01-19T10:33:43.700Z,48
2023-01-19T10:34:43.685Z,43
2023-01-19T10:35:43.685Z,46
2023-01-19T10:36:43.699Z,55
2023-01-19T10:37:43.700Z,44
2023-01-19T10:38:43.685Z,58
2023-01-19T10:39:43.685Z,53
2023-01-19T10:40:43.700Z,49
2023-01-19T10:41:43.700Z,53
2023-01-19T10:42:43.686Z,59
2023-01-19T10:43:43.700Z,49
2023-01-19T10:44:43.700Z,54
2023-01-19T10:45:43.700Z,52
2023-01-19T10:46:43.686Z,60
2023-01-19T10:47:43.700Z,59
2023-01-19T10:48:43.701Z,46
2023-01-19T10:49:43.700Z,47
2023-01-19T10:50:43.686Z,44
2023-01-19T10:51:43.700Z,42
2023-01-19T10:52:43.701Z,45
2023-01-19T10:53:43.687Z,45
2023-01-19T10:54:43.687Z,50
2023-01-19T10:55:43.701Z,54
2023-01-19T10:56:43.702Z,60
2023-01-19T10:57:43.687Z,65
2023-01-19T10:58:43.751Z,53
2023-01-19T10:59:43.701Z,62
2023-01-19T11:00:43.701Z,70
2023-01-19T11:01:43.687Z,69
2023-01-19T11:02:43.702Z,68
2023-01-19T11:03:43.702Z,54
2023-01-19T11:04:43.701Z,63
2023-01-19T11:05:43.687Z,60
2023-01-19T11:06:43.702Z,56
2023-01-19T11:07:43.702Z,67
2023-01-19T11:08:43.702Z,67
2023-01-19T11:09:43.688Z,68
2023-01-19T11:10:43.702Z,62
2023-01-19T11:11:43.703Z,59
2023-01-19T11:12:43.688Z,61
2023-01-19T11:13:43.688Z,64
2023-01-19T11:14:43.702Z,69
2023-01-19T11:15:43.703Z,85
2023-01-19T11:16:43.688Z,62
2023-01-19T11:17:43.702Z,61
2023-01-19T11:18:43.703Z,72
2023-01-19T11:19:43.703Z,63
2023-01-19T11:20:43.689Z,68
2023-01-19T11:21:43.703Z,70
2023-01-19T11:22:43.704Z,61
2023-01-19T11:23:43.703Z,64
2023-01-19T11:24:43.689Z,55
2023-01-19T11:25:43.703Z,60
2023-01-19T11:26:43.704Z,63
2023-01-19T11:27:43.689Z,53
2023-01-19T11:28:43.689Z,53
2023-01-19T11:29:43.703Z,55
2023-01-19T11:30:43.704Z,76
2023-01-19T11:31:43.689Z,80
2023-01-19T11:32:43.690Z,79
2023-01-19T11:33:43.704Z,59
2023-01-19T11:34:43.704Z,49
2023-01-19T11:35:43.690Z,70
2023-01-19T11:36:43.704Z,65
2023-01-19T11:37:43.704Z,67
2023-01-19T11:38:43.704Z,59
2023-01-19T11:39:43.690Z,64
2023-01-19T11:40:43.704Z,61
2023-01-19T11:41:43.705Z,65
2023-01-19T11:42:43.704Z,78
2023-01-19T11:43:43.691Z,64
2023-01-19T11:44:43.705Z,72
2023-01-19T11:45:43.706Z,78
2023-01-19T11:46:43.691Z,86
2023-01-19T11:47:43.691Z,90
2023-01-19T11:48:43.705Z,73
2023-01-19T11:49:43.706Z,77
2023-01-19T11:50:43.691Z,80
2023-01-19T11:51:43.706Z,83
2023-01-19T11:52:43.705Z,79
2023-01-19T11:53:43.706Z,69
2023-01-19T11:54:43.692Z,67
2023-01-19T11:55:43.706Z,83
2023-01-19T11:56:43.706Z,89
2023-01-19T11:57:43.706Z,90
2023-01-19T11:58:43.692Z,86
2023-01-19T11:59:43.706Z,93
2023-01-19T12:00:43.707Z,98
2023-01-19T12:01:43.706Z,97
2023-01-19T12:02:43.692Z,85
2023-01-19T12:03:43.707Z,84
2023-01-19T12:04:43.707Z,92
2023-01-19T12:05:43.693Z,104
2023-01-19T12:06:43.693Z,111
2023-01-19T12:07:43.707Z,95
2023-01-19T12:08:43.748Z,99
2023-01-19T12:09:43.693Z,111
2023-01-19T12:10:43.707Z,96
2023-01-19T12:11:43.707Z,93
2023-01-19T12:12:43.707Z,97
2023-01-19T12:13:43.693Z,99
2023-01-19T12:14:43.708Z,100
2023-01-19T12:15:43.708Z,109
2023-01-19T12:16:43.707Z,101
2023-01-19T12:17:43.694Z,99
2023-01-19T12:18:43.708Z,92
2023-01-19T12:19:43.709Z,79
2023-01-19T12:20:43.694Z,88
2023-01-19T12:21:43.694Z,89
2023-01-19T12:22:43.708Z,77
2023-01-19T12:23:43.709Z,76
2023-01-19T12:24:43.694Z,83
2023-01-19T12:25:43.759Z,68
2023-01-19T12:26:43.709Z,65
2023-01-19T12:27:43.709Z,70
2023-01-19T12:28:43.694Z,85
2023-01-19T12:29:43.709Z,92
2023-01-19T12:30:43.709Z,92
2023-01-19T12:31:43.709Z,83
2023-01-19T12:32:43.695Z,87
2023-01-19T12:33:43.709Z,80
2023-01-19T12:34:43.710Z,71
2023-01-19T12:35:43.709Z,89
2023-01-19T12:36:43.695Z,88
2023-01-19T12:37:43.709Z,77
2023-01-19T12:38:43.710Z,75
2023-01-19T12:39:43.695Z,76
2023-01-19T12:40:43.695Z,68
2023-01-19T12:41:43.710Z,69
2023-01-19T12:42:43.710Z,66
2023-01-19T12:43:43.696Z,69
2023-01-19T12:44:43.710Z,66
2023-01-19T12:45:43.710Z,74
2023-01-19T12:46:43.710Z,65
2023-01-19T12:47:43.696Z,70
2023-01-19T12:48:43.710Z,65
2023-01-19T12:49:43.755Z,73
2023-01-19T12:50:43.710Z,69
2023-01-19T12:51:43.696Z,69
2023-01-19T12:52:43.711Z,71
2023-01-19T12:53:43.711Z,72
2023-01-19T12:54:43.711Z,73
2023-01-19T12:55:43.697Z,70
2023-01-19T12:56:43.711Z,67
2023-01-19T12:57:43.711Z,62
2023-01-19T12:58:43.697Z,62
2023-01-19T12:59:43.697Z,53
2023-01-19T13:00:43.711Z,66
2023-01-19T13:01:43.752Z,69
2023-01-19T13:02:43.697Z,70
2023-01-19T13:03:43.711Z,67
2023-01-19T13:04:43.711Z,76
2023-01-19T13:05:43.712Z,75
2023-01-19T13:06:43.711Z,69
2023-01-19T13:07:43.712Z,61
2023-01-19T13:08:43.713Z,52
2023-01-19T13:09:43.712Z,62
2023-01-19T13:10:43.698Z,53
2023-01-19T13:11:43.712Z,45
2023-01-19T13:12:43.713Z,52
2023-01-19T13:13:43.698Z,46
2023-01-19T13:14:43.698Z,50
2023-01-19T13:15:43.712Z,58
2023-01-19T13:16:43.713Z,47
2023-01-19T13:17:43.698Z,40
2023-01-19T13:18:43.755Z,43
2023-01-19T13:19:43.713Z,54
2023-01-19T13:20:43.713Z,46
2023-01-19T13:21:43.699Z,34
2023-01-19T13:22:43.713Z,37
2023-01-19T13:23:43.713Z,42
2023-01-19T13:24:43.713Z,39
2023-01-19T13:25:43.699Z,39
2023-01-19T13:26:43.713Z,42
2023-01-19T13:27:43.714Z,49
2023-01-19T13:28:43.713Z,41
2023-01-19T13:29:43.700Z,49
2023-01-19T13:30:43.714Z,53
2023-01-19T13:31:43.715Z,52
2023-01-19T13:32:43.700Z,39
2023-01-19T13:33:43.700Z,46
2023-01-19T13:34:43.714Z,42
2023-01-19T13:35:43.715Z,42
2023-01-19T13:36:43.700Z,51
2023-01-19T13:37:43.714Z,42
2023-01-19T13:38:43.714Z,48
2023-01-19T13:39:43.714Z,46
2023-01-19T13:40:43.701Z,49
2023-01-19T13:41:43.715Z,50
2023-01-19T13:42:43.716Z,45
2023-01-19T13:43:43.715Z,57
2023-01-19T13:44:43.701Z,47
2023-01-19T13:45:43.716Z,56
2023-01-19T13:46:43.716Z,44
2023-01-19T13:47:43.701Z,43
2023-01-19T13:48:43.701Z,45
2023-01-19T13:49:43.715Z,49
2023-01-19T13:50:43.716Z,43
2023-01-19T13:51:43.702Z,41
2023-01-19T13:52:43.702Z,43
2023-01-19T13:53:43.716Z,45
2023-01-19T13:54:43.716Z,43
2023-01-19T13:55:43.702Z,41
2023-01-19T13:56:43.716Z,52
2023-01-19T13:57:43.716Z,52
2023-01-19T13:58:43.716Z,46
2023-01-19T13:59:43.702Z,41
2023-01-19T14:00:43.716Z,68
2023-01-19T14:01:43.717Z,54
2023-01-19T14:02:43.717Z,53
2023-01-19T14:03:43.703Z,51
2023-01-19T14:04:43.717Z,49
2023-01-19T14:05:43.717Z,48
2023-01-19T14:06:43.703Z,44
2023-01-19T14:07:43.703Z,53
2023-01-19T14:08:43.717Z,51
2023-01-19T14:09:43.718Z,46
2023-01-19T14:10:43.703Z,48
2023-01-19T14:11:43.717Z,62
2023-01-19T14:12:43.717Z,56
2023-01-19T14:13:43.717Z,64
2023-01-19T14:14:43.703Z,57
2023-01-19T14:15:43.718Z,59
2023-01-19T14:16:43.718Z,55
2023-01-19T14:17:43.718Z,54
2023-01-19T14:18:43.704Z,58
2023-01-19T14:19:43.718Z,53
2023-01-19T14:20:43.718Z,57